sensor_id;sensor_type;location;lat;lon;timestamp;P1;durP1;ratioP1;P2;durP2;ratioP2
27161;SDS011;54464;50.558;9.704;2023-05-14T00:00:49;4.57;;;3.80;;
27161;SDS011;54464;50.558;9.704;2023-05-14T00:03:15;3.80;;;3.50;;
27161;SDS011;54464;50.558;9.704;2023-05-14T00:05:40;4.40;;;3.90;;
27161;SDS011;54464;50.558;9.704;2023-05-14T00:08:06;3.93;;;3.43;;
27161;SDS011;54464;50.558;9.704;2023-05-14T00:10:32;4.10;;;3.80;;
27161;SDS011;54464;50.558;9.704;2023-05-14T00:12:57;4.47;;;4.07;;
27161;SDS011;54464;50.558;9.704;2023-05-14T00:15:23;5.93;;;5.37;;
27161;SDS011;54464;50.558;9.704;2023-05-14T00:17:48;7.50;;;6.67;;
27161;SDS011;54464;50.558;9.704;2023-05-14T00:20:14;7.53;;;6.63;;
27161;SDS011;54464;50.558;9.704;2023-05-14T00:22:40;7.10;;;6.40;;
27161;SDS011;54464;50.558;9.704;2023-05-14T00:25:06;8.07;;;6.47;;
27161;SDS011;54464;50.558;9.704;2023-05-14T00:27:32;6.47;;;5.87;;
27161;SDS011;54464;50.558;9.704;2023-05-14T00:29:58;6.60;;;6.00;;
27161;SDS011;54464;50.558;9.704;2023-05-14T00:32:24;6.93;;;6.03;;
27161;SDS011;54464;50.558;9.704;2023-05-14T00:34:49;6.63;;;5.70;;
27161;SDS011;54464;50.558;9.704;2023-05-14T00:37:15;6.80;;;5.60;;
27161;SDS011;54464;50.558;9.704;2023-05-14T00:39:40;7.30;;;5.43;;
27161;SDS011;54464;50.558;9.704;2023-05-14T00:42:06;6.33;;;5.63;;
27161;SDS011;54464;50.558;9.704;2023-05-14T00:44:32;5.67;;;5.10;;
27161;SDS011;54464;50.558;9.704;2023-05-14T00:46:58;6.20;;;5.60;;
27161;SDS011;54464;50.558;9.704;2023-05-14T00:49:24;5.37;;;4.87;;
27161;SDS011;54464;50.558;9.704;2023-05-14T00:51:50;5.63;;;5.10;;
27161;SDS011;54464;50.558;9.704;2023-05-14T00:54:17;5.80;;;5.13;;
27161;SDS011;54464;50.558;9.704;2023-05-14T00:56:44;6.60;;;5.90;;
27161;SDS011;54464;50.558;9.704;2023-05-14T00:59:11;5.93;;;5.37;;
27161;SDS011;54464;50.558;9.704;2023-05-14T01:01:37;5.50;;;5.00;;
27161;SDS011;54464;50.558;9.704;2023-05-14T01:04:03;6.60;;;5.90;;
27161;SDS011;54464;50.558;9.704;2023-05-14T01:12:20;6.17;;;5.57;;
27161;SDS011;54464;50.558;9.704;2023-05-14T01:17:27;7.83;;;5.10;;
27161;SDS011;54464;50.558;9.704;2023-05-14T01:19:54;6.10;;;5.50;;
27161;SDS011;54464;50.558;9.704;2023-05-14T01:22:21;6.30;;;5.20;;
27161;SDS011;54464;50.558;9.704;2023-05-14T01:24:47;5.50;;;5.00;;
27161;SDS011;54464;50.558;9.704;2023-05-14T01:27:17;5.60;;;5.10;;
27161;SDS011;54464;50.558;9.704;2023-05-14T01:32:38;6.03;;;4.83;;
27161;SDS011;54464;50.558;9.704;2023-05-14T01:35:04;5.60;;;5.10;;
27161;SDS011;54464;50.558;9.704;2023-05-14T01:37:32;5.77;;;5.27;;
27161;SDS011;54464;50.558;9.704;2023-05-14T01:39:58;6.70;;;6.00;;
27161;SDS011;54464;50.558;9.704;2023-05-14T01:42:24;6.77;;;5.73;;
27161;SDS011;54464;50.558;9.704;2023-05-14T01:44:51;6.70;;;6.07;;
27161;SDS011;54464;50.558;9.704;2023-05-14T01:47:16;7.13;;;6.20;;
27161;SDS011;54464;50.558;9.704;2023-05-14T01:49:42;6.70;;;6.10;;
27161;SDS011;54464;50.558;9.704;2023-05-14T01:52:08;7.00;;;6.17;;
27161;SDS011;54464;50.558;9.704;2023-05-14T01:54:33;6.40;;;5.80;;
27161;SDS011;54464;50.558;9.704;2023-05-14T01:56:59;7.40;;;5.97;;
27161;SDS011;54464;50.558;9.704;2023-05-14T01:59:24;6.73;;;5.67;;
27161;SDS011;54464;50.558;9.704;2023-05-14T02:01:50;6.57;;;5.90;;
27161;SDS011;54464;50.558;9.704;2023-05-14T02:04:15;6.37;;;5.77;;
27161;SDS011;54464;50.558;9.704;2023-05-14T02:06:41;6.73;;;6.10;;
27161;SDS011;54464;50.558;9.704;2023-05-14T02:09:06;6.33;;;5.80;;
27161;SDS011;54464;50.558;9.704;2023-05-14T02:11:32;5.90;;;5.30;;
27161;SDS011;54464;50.558;9.704;2023-05-14T02:13:57;6.13;;;5.60;;
27161;SDS011;54464;50.558;9.704;2023-05-14T02:16:23;6.67;;;6.10;;
27161;SDS011;54464;50.558;9.704;2023-05-14T02:18:48;5.93;;;5.40;;
27161;SDS011;54464;50.558;9.704;2023-05-14T02:21:14;5.83;;;5.13;;
27161;SDS011;54464;50.558;9.704;2023-05-14T02:23:40;7.23;;;6.57;;
27161;SDS011;54464;50.558;9.704;2023-05-14T02:26:05;7.07;;;6.37;;
27161;SDS011;54464;50.558;9.704;2023-05-14T02:28:32;7.63;;;6.43;;
27161;SDS011;54464;50.558;9.704;2023-05-14T02:30:58;7.13;;;6.30;;
27161;SDS011;54464;50.558;9.704;2023-05-14T02:33:26;8.40;;;6.70;;
27161;SDS011;54464;50.558;9.704;2023-05-14T02:35:52;7.00;;;6.37;;
27161;SDS011;54464;50.558;9.704;2023-05-14T02:38:18;8.27;;;7.47;;
27161;SDS011;54464;50.558;9.704;2023-05-14T02:40:44;8.10;;;7.40;;
27161;SDS011;54464;50.558;9.704;2023-05-14T02:43:09;7.90;;;7.20;;
27161;SDS011;54464;50.558;9.704;2023-05-14T02:45:35;7.77;;;6.97;;
27161;SDS011;54464;50.558;9.704;2023-05-14T02:48:01;7.93;;;6.73;;
27161;SDS011;54464;50.558;9.704;2023-05-14T02:50:26;9.53;;;6.70;;
27161;SDS011;54464;50.558;9.704;2023-05-14T02:52:52;7.20;;;6.57;;
27161;SDS011;54464;50.558;9.704;2023-05-14T02:55:17;7.63;;;6.93;;
27161;SDS011;54464;50.558;9.704;2023-05-14T02:57:43;6.63;;;6.03;;
27161;SDS011;54464;50.558;9.704;2023-05-14T03:00:09;6.70;;;6.10;;
27161;SDS011;54464;50.558;9.704;2023-05-14T03:02:35;7.07;;;6.47;;
27161;SDS011;54464;50.558;9.704;2023-05-14T03:05:01;6.90;;;6.27;;
27161;SDS011;54464;50.558;9.704;2023-05-14T03:07:27;6.97;;;6.37;;
27161;SDS011;54464;50.558;9.704;2023-05-14T03:09:52;7.17;;;6.47;;
27161;SDS011;54464;50.558;9.704;2023-05-14T03:12:18;7.50;;;6.70;;
27161;SDS011;54464;50.558;9.704;2023-05-14T03:14:44;7.20;;;6.60;;
27161;SDS011;54464;50.558;9.704;2023-05-14T03:17:09;7.40;;;6.70;;
27161;SDS011;54464;50.558;9.704;2023-05-14T03:19:35;8.00;;;7.20;;
27161;SDS011;54464;50.558;9.704;2023-05-14T03:22:00;8.77;;;7.60;;
27161;SDS011;54464;50.558;9.704;2023-05-14T03:24:26;8.90;;;8.00;;
27161;SDS011;54464;50.558;9.704;2023-05-14T03:26:51;11.50;;;10.30;;
27161;SDS011;54464;50.558;9.704;2023-05-14T03:29:17;10.10;;;9.10;;
27161;SDS011;54464;50.558;9.704;2023-05-14T03:31:43;11.93;;;10.73;;
27161;SDS011;54464;50.558;9.704;2023-05-14T03:34:09;11.57;;;10.37;;
27161;SDS011;54464;50.558;9.704;2023-05-14T03:36:34;11.73;;;10.17;;
27161;SDS011;54464;50.558;9.704;2023-05-14T03:39:01;11.70;;;10.37;;
27161;SDS011;54464;50.558;9.704;2023-05-14T03:41:27;13.10;;;9.57;;
27161;SDS011;54464;50.558;9.704;2023-05-14T03:43:53;11.33;;;8.93;;
27161;SDS011;54464;50.558;9.704;2023-05-14T03:46:18;9.20;;;8.27;;
27161;SDS011;54464;50.558;9.704;2023-05-14T03:48:44;9.53;;;8.27;;
27161;SDS011;54464;50.558;9.704;2023-05-14T03:51:09;10.17;;;7.53;;
27161;SDS011;54464;50.558;9.704;2023-05-14T03:53:35;8.90;;;8.10;;
27161;SDS011;54464;50.558;9.704;2023-05-14T03:56:00;9.83;;;7.37;;
27161;SDS011;54464;50.558;9.704;2023-05-14T03:58:26;8.17;;;7.37;;
27161;SDS011;54464;50.558;9.704;2023-05-14T04:00:51;8.40;;;7.53;;
27161;SDS011;54464;50.558;9.704;2023-05-14T04:03:17;8.73;;;7.83;;
27161;SDS011;54464;50.558;9.704;2023-05-14T04:05:43;9.03;;;8.13;;
27161;SDS011;54464;50.558;9.704;2023-05-14T04:08:08;10.10;;;9.10;;
27161;SDS011;54464;50.558;9.704;2023-05-14T04:10:34;10.77;;;9.57;;
27161;SDS011;54464;50.558;9.704;2023-05-14T04:13:00;9.83;;;8.90;;
27161;SDS011;54464;50.558;9.704;2023-05-14T04:15:25;9.53;;;8.07;;
27161;SDS011;54464;50.558;9.704;2023-05-14T04:17:51;9.43;;;8.53;;
27161;SDS011;54464;50.558;9.704;2023-05-14T04:20:16;9.17;;;8.27;;
27161;SDS011;54464;50.558;9.704;2023-05-14T04:22:42;10.13;;;7.87;;
27161;SDS011;54464;50.558;9.704;2023-05-14T04:25:07;9.27;;;8.43;;
27161;SDS011;54464;50.558;9.704;2023-05-14T04:27:33;9.07;;;8.17;;
27161;SDS011;54464;50.558;9.704;2023-05-14T04:29:59;9.83;;;8.17;;
27161;SDS011;54464;50.558;9.704;2023-05-14T04:32:25;10.53;;;8.87;;
27161;SDS011;54464;50.558;9.704;2023-05-14T04:34:50;9.10;;;7.80;;
27161;SDS011;54464;50.558;9.704;2023-05-14T04:37:16;9.13;;;8.20;;
27161;SDS011;54464;50.558;9.704;2023-05-14T04:39:41;9.37;;;8.47;;
27161;SDS011;54464;50.558;9.704;2023-05-14T04:42:07;10.60;;;8.57;;
27161;SDS011;54464;50.558;9.704;2023-05-14T04:44:33;10.73;;;8.53;;
27161;SDS011;54464;50.558;9.704;2023-05-14T04:47:00;9.00;;;8.10;;
27161;SDS011;54464;50.558;9.704;2023-05-14T04:49:26;8.57;;;7.77;;
27161;SDS011;54464;50.558;9.704;2023-05-14T04:51:52;8.20;;;7.50;;
27161;SDS011;54464;50.558;9.704;2023-05-14T04:54:17;8.20;;;7.40;;
27161;SDS011;54464;50.558;9.704;2023-05-14T04:56:43;7.73;;;6.93;;
27161;SDS011;54464;50.558;9.704;2023-05-14T04:59:08;8.03;;;7.23;;
27161;SDS011;54464;50.558;9.704;2023-05-14T05:01:34;7.60;;;6.93;;
27161;SDS011;54464;50.558;9.704;2023-05-14T05:03:59;7.97;;;7.17;;
27161;SDS011;54464;50.558;9.704;2023-05-14T05:06:25;8.77;;;7.83;;
27161;SDS011;54464;50.558;9.704;2023-05-14T05:08:50;8.23;;;7.43;;
27161;SDS011;54464;50.558;9.704;2023-05-14T05:11:16;9.60;;;8.60;;
27161;SDS011;54464;50.558;9.704;2023-05-14T05:13:41;9.17;;;8.27;;
27161;SDS011;54464;50.558;9.704;2023-05-14T05:16:07;8.97;;;8.17;;
27161;SDS011;54464;50.558;9.704;2023-05-14T05:18:32;9.67;;;7.90;;
27161;SDS011;54464;50.558;9.704;2023-05-14T05:20:58;9.03;;;8.23;;
27161;SDS011;54464;50.558;9.704;2023-05-14T05:23:23;8.77;;;7.80;;
27161;SDS011;54464;50.558;9.704;2023-05-14T05:25:49;9.13;;;8.13;;
27161;SDS011;54464;50.558;9.704;2023-05-14T05:28:15;8.97;;;8.10;;
27161;SDS011;54464;50.558;9.704;2023-05-14T05:30:40;9.20;;;7.73;;
27161;SDS011;54464;50.558;9.704;2023-05-14T05:33:08;8.17;;;7.37;;
27161;SDS011;54464;50.558;9.704;2023-05-14T05:35:34;8.57;;;7.77;;
27161;SDS011;54464;50.558;9.704;2023-05-14T05:38:00;8.70;;;7.90;;
27161;SDS011;54464;50.558;9.704;2023-05-14T05:40:25;8.03;;;7.33;;
27161;SDS011;54464;50.558;9.704;2023-05-14T05:42:51;8.33;;;7.63;;
27161;SDS011;54464;50.558;9.704;2023-05-14T05:45:17;9.33;;;7.77;;
27161;SDS011;54464;50.558;9.704;2023-05-14T05:47:42;8.77;;;7.87;;
27161;SDS011;54464;50.558;9.704;2023-05-14T05:50:08;8.80;;;7.53;;
27161;SDS011;54464;50.558;9.704;2023-05-14T05:52:34;8.53;;;7.70;;
27161;SDS011;54464;50.558;9.704;2023-05-14T05:55:00;8.43;;;7.63;;
27161;SDS011;54464;50.558;9.704;2023-05-14T05:57:25;8.43;;;7.63;;
27161;SDS011;54464;50.558;9.704;2023-05-14T05:59:51;8.60;;;7.80;;
27161;SDS011;54464;50.558;9.704;2023-05-14T06:02:17;8.20;;;7.40;;
27161;SDS011;54464;50.558;9.704;2023-05-14T06:04:43;8.03;;;7.33;;
27161;SDS011;54464;50.558;9.704;2023-05-14T06:07:09;8.37;;;7.67;;
27161;SDS011;54464;50.558;9.704;2023-05-14T06:09:34;8.53;;;7.77;;
27161;SDS011;54464;50.558;9.704;2023-05-14T06:12:00;9.30;;;7.20;;
27161;SDS011;54464;50.558;9.704;2023-05-14T06:14:26;8.17;;;7.33;;
27161;SDS011;54464;50.558;9.704;2023-05-14T06:16:51;8.30;;;7.50;;
27161;SDS011;54464;50.558;9.704;2023-05-14T06:19:17;7.90;;;7.20;;
27161;SDS011;54464;50.558;9.704;2023-05-14T06:21:42;8.30;;;7.40;;
27161;SDS011;54464;50.558;9.704;2023-05-14T06:24:08;8.47;;;7.67;;
27161;SDS011;54464;50.558;9.704;2023-05-14T06:26:34;10.00;;;8.40;;
27161;SDS011;54464;50.558;9.704;2023-05-14T06:28:59;9.07;;;8.17;;
27161;SDS011;54464;50.558;9.704;2023-05-14T06:31:25;8.63;;;7.67;;
27161;SDS011;54464;50.558;9.704;2023-05-14T06:33:51;8.27;;;7.47;;
27161;SDS011;54464;50.558;9.704;2023-05-14T06:36:16;8.00;;;7.30;;
27161;SDS011;54464;50.558;9.704;2023-05-14T06:38:44;8.33;;;7.43;;
27161;SDS011;54464;50.558;9.704;2023-05-14T06:41:10;7.80;;;7.00;;
27161;SDS011;54464;50.558;9.704;2023-05-14T06:43:36;8.33;;;7.20;;
27161;SDS011;54464;50.558;9.704;2023-05-14T06:46:01;7.80;;;7.13;;
27161;SDS011;54464;50.558;9.704;2023-05-14T06:48:27;7.70;;;6.90;;
27161;SDS011;54464;50.558;9.704;2023-05-14T06:50:53;7.53;;;6.93;;
27161;SDS011;54464;50.558;9.704;2023-05-14T06:53:19;7.00;;;6.27;;
27161;SDS011;54464;50.558;9.704;2023-05-14T06:55:47;6.83;;;6.13;;
27161;SDS011;54464;50.558;9.704;2023-05-14T06:58:13;9.53;;;6.20;;
27161;SDS011;54464;50.558;9.704;2023-05-14T07:00:38;7.27;;;5.80;;
27161;SDS011;54464;50.558;9.704;2023-05-14T07:03:04;5.77;;;5.27;;
27161;SDS011;54464;50.558;9.704;2023-05-14T07:05:30;8.27;;;7.27;;
27161;SDS011;54464;50.558;9.704;2023-05-14T07:07:56;8.07;;;7.27;;
27161;SDS011;54464;50.558;9.704;2023-05-14T07:10:21;7.30;;;6.60;;
27161;SDS011;54464;50.558;9.704;2023-05-14T07:12:47;7.67;;;6.90;;
27161;SDS011;54464;50.558;9.704;2023-05-14T07:15:13;4.80;;;4.30;;
27161;SDS011;54464;50.558;9.704;2023-05-14T07:17:39;4.73;;;4.33;;
27161;SDS011;54464;50.558;9.704;2023-05-14T07:20:05;4.70;;;4.20;;
27161;SDS011;54464;50.558;9.704;2023-05-14T07:22:31;4.87;;;4.37;;
27161;SDS011;54464;50.558;9.704;2023-05-14T07:24:57;4.20;;;3.80;;
27161;SDS011;54464;50.558;9.704;2023-05-14T07:27:22;4.37;;;3.97;;
27161;SDS011;54464;50.558;9.704;2023-05-14T07:29:48;4.30;;;3.90;;
27161;SDS011;54464;50.558;9.704;2023-05-14T07:32:14;3.87;;;3.57;;
27161;SDS011;54464;50.558;9.704;2023-05-14T07:34:40;4.53;;;4.10;;
27161;SDS011;54464;50.558;9.704;2023-05-14T07:37:06;3.90;;;3.60;;
27161;SDS011;54464;50.558;9.704;2023-05-14T07:39:31;3.53;;;3.23;;
27161;SDS011;54464;50.558;9.704;2023-05-14T07:41:59;3.53;;;3.23;;
27161;SDS011;54464;50.558;9.704;2023-05-14T07:44:24;4.37;;;3.40;;
27161;SDS011;54464;50.558;9.704;2023-05-14T07:46:50;3.37;;;3.07;;
27161;SDS011;54464;50.558;9.704;2023-05-14T07:49:16;3.23;;;3.03;;
27161;SDS011;54464;50.558;9.704;2023-05-14T07:51:41;3.83;;;3.40;;
27161;SDS011;54464;50.558;9.704;2023-05-14T07:54:07;3.80;;;3.47;;
27161;SDS011;54464;50.558;9.704;2023-05-14T07:56:32;3.10;;;2.90;;
27161;SDS011;54464;50.558;9.704;2023-05-14T07:58:58;3.20;;;2.90;;
27161;SDS011;54464;50.558;9.704;2023-05-14T08:01:24;3.03;;;2.77;;
27161;SDS011;54464;50.558;9.704;2023-05-14T08:03:50;3.80;;;3.27;;
27161;SDS011;54464;50.558;9.704;2023-05-14T08:06:16;3.40;;;3.10;;
27161;SDS011;54464;50.558;9.704;2023-05-14T08:08:41;2.87;;;2.67;;
27161;SDS011;54464;50.558;9.704;2023-05-14T08:11:07;3.10;;;2.73;;
27161;SDS011;54464;50.558;9.704;2023-05-14T08:13:32;3.07;;;2.77;;
27161;SDS011;54464;50.558;9.704;2023-05-14T08:15:58;2.73;;;2.53;;
27161;SDS011;54464;50.558;9.704;2023-05-14T08:18:24;4.10;;;3.07;;
27161;SDS011;54464;50.558;9.704;2023-05-14T08:20:50;3.90;;;2.70;;
27161;SDS011;54464;50.558;9.704;2023-05-14T08:23:15;3.33;;;2.83;;
27161;SDS011;54464;50.558;9.704;2023-05-14T08:25:41;2.70;;;2.50;;
27161;SDS011;54464;50.558;9.704;2023-05-14T08:28:06;2.80;;;2.60;;
27161;SDS011;54464;50.558;9.704;2023-05-14T08:30:32;2.70;;;2.50;;
27161;SDS011;54464;50.558;9.704;2023-05-14T08:32:58;2.83;;;2.63;;
27161;SDS011;54464;50.558;9.704;2023-05-14T08:35:24;3.00;;;2.70;;
27161;SDS011;54464;50.558;9.704;2023-05-14T08:37:49;2.63;;;2.43;;
27161;SDS011;54464;50.558;9.704;2023-05-14T08:40:16;2.90;;;2.60;;
27161;SDS011;54464;50.558;9.704;2023-05-14T08:42:43;2.67;;;2.43;;
27161;SDS011;54464;50.558;9.704;2023-05-14T08:45:14;2.77;;;2.47;;
27161;SDS011;54464;50.558;9.704;2023-05-14T08:47:44;2.80;;;2.60;;
27161;SDS011;54464;50.558;9.704;2023-05-14T08:50:13;3.43;;;2.70;;
27161;SDS011;54464;50.558;9.704;2023-05-14T08:52:39;2.73;;;2.53;;
27161;SDS011;54464;50.558;9.704;2023-05-14T08:55:05;2.73;;;2.40;;
27161;SDS011;54464;50.558;9.704;2023-05-14T08:57:32;2.60;;;2.40;;
27161;SDS011;54464;50.558;9.704;2023-05-14T08:59:59;3.03;;;2.40;;
27161;SDS011;54464;50.558;9.704;2023-05-14T09:02:29;2.87;;;2.60;;
27161;SDS011;54464;50.558;9.704;2023-05-14T09:04:59;4.03;;;2.40;;
27161;SDS011;54464;50.558;9.704;2023-05-14T09:07:25;2.90;;;2.63;;
27161;SDS011;54464;50.558;9.704;2023-05-14T09:09:51;3.23;;;2.30;;
27161;SDS011;54464;50.558;9.704;2023-05-14T09:12:17;3.37;;;2.67;;
27161;SDS011;54464;50.558;9.704;2023-05-14T09:14:44;2.83;;;2.53;;
27161;SDS011;54464;50.558;9.704;2023-05-14T09:17:11;2.70;;;2.50;;
27161;SDS011;54464;50.558;9.704;2023-05-14T09:19:40;2.60;;;2.40;;
27161;SDS011;54464;50.558;9.704;2023-05-14T09:22:13;2.50;;;2.30;;
27161;SDS011;54464;50.558;9.704;2023-05-14T09:24:39;2.50;;;2.30;;
27161;SDS011;54464;50.558;9.704;2023-05-14T09:27:06;2.60;;;2.40;;
27161;SDS011;54464;50.558;9.704;2023-05-14T09:29:32;2.30;;;2.10;;
27161;SDS011;54464;50.558;9.704;2023-05-14T09:32:00;2.30;;;2.10;;
27161;SDS011;54464;50.558;9.704;2023-05-14T09:34:29;2.40;;;2.20;;
27161;SDS011;54464;50.558;9.704;2023-05-14T09:36:57;2.33;;;2.13;;
27161;SDS011;54464;50.558;9.704;2023-05-14T09:39:30;2.40;;;2.20;;
27161;SDS011;54464;50.558;9.704;2023-05-14T09:41:57;2.70;;;2.50;;
27161;SDS011;54464;50.558;9.704;2023-05-14T09:44:22;2.60;;;2.40;;
27161;SDS011;54464;50.558;9.704;2023-05-14T09:46:48;2.47;;;2.27;;
27161;SDS011;54464;50.558;9.704;2023-05-14T09:49:15;2.13;;;2.00;;
27161;SDS011;54464;50.558;9.704;2023-05-14T09:51:41;2.40;;;2.20;;
27161;SDS011;54464;50.558;9.704;2023-05-14T09:54:06;3.20;;;2.40;;
27161;SDS011;54464;50.558;9.704;2023-05-14T09:56:54;3.67;;;2.53;;
27161;SDS011;54464;50.558;9.704;2023-05-14T09:59:19;2.40;;;2.20;;
27161;SDS011;54464;50.558;9.704;2023-05-14T10:01:44;3.07;;;2.50;;
27161;SDS011;54464;50.558;9.704;2023-05-14T10:04:11;2.40;;;2.10;;
27161;SDS011;54464;50.558;9.704;2023-05-14T10:06:38;2.20;;;2.03;;
27161;SDS011;54464;50.558;9.704;2023-05-14T10:09:09;2.23;;;2.03;;
27161;SDS011;54464;50.558;9.704;2023-05-14T10:11:38;2.63;;;2.43;;
27161;SDS011;54464;50.558;9.704;2023-05-14T10:14:08;2.13;;;2.00;;
27161;SDS011;54464;50.558;9.704;2023-05-14T10:16:44;2.30;;;2.10;;
27161;SDS011;54464;50.558;9.704;2023-05-14T10:19:15;2.20;;;2.10;;
27161;SDS011;54464;50.558;9.704;2023-05-14T10:21:43;2.43;;;2.10;;
27161;SDS011;54464;50.558;9.704;2023-05-14T10:24:11;2.50;;;2.00;;
27161;SDS011;54464;50.558;9.704;2023-05-14T10:26:38;2.03;;;1.80;;
27161;SDS011;54464;50.558;9.704;2023-05-14T10:29:05;2.03;;;1.80;;
27161;SDS011;54464;50.558;9.704;2023-05-14T10:31:45;1.80;;;1.70;;
27161;SDS011;54464;50.558;9.704;2023-05-14T10:37:00;2.23;;;1.90;;
27161;SDS011;54464;50.558;9.704;2023-05-14T10:42:12;1.67;;;1.57;;
27161;SDS011;54464;50.558;9.704;2023-05-14T10:44:53;1.70;;;1.60;;
27161;SDS011;54464;50.558;9.704;2023-05-14T10:47:22;1.73;;;1.63;;
27161;SDS011;54464;50.558;9.704;2023-05-14T10:49:51;2.53;;;1.90;;
27161;SDS011;54464;50.558;9.704;2023-05-14T10:52:18;2.00;;;1.80;;
27161;SDS011;54464;50.558;9.704;2023-05-14T10:54:55;1.93;;;1.80;;
27161;SDS011;54464;50.558;9.704;2023-05-14T10:57:25;3.67;;;1.83;;
27161;SDS011;54464;50.558;9.704;2023-05-14T10:59:57;2.60;;;2.40;;
27161;SDS011;54464;50.558;9.704;2023-05-14T11:02:25;2.33;;;1.93;;
27161;SDS011;54464;50.558;9.704;2023-05-14T11:04:59;1.83;;;1.60;;
27161;SDS011;54464;50.558;9.704;2023-05-14T11:12:31;1.70;;;1.60;;
27161;SDS011;54464;50.558;9.704;2023-05-14T11:15:03;2.17;;;1.97;;
27161;SDS011;54464;50.558;9.704;2023-05-14T11:17:33;2.23;;;2.03;;
27161;SDS011;54464;50.558;9.704;2023-05-14T11:20:00;2.67;;;1.60;;
27161;SDS011;54464;50.558;9.704;2023-05-14T11:22:26;1.90;;;1.80;;
27161;SDS011;54464;50.558;9.704;2023-05-14T11:24:52;1.80;;;1.70;;
27161;SDS011;54464;50.558;9.704;2023-05-14T11:27:19;2.00;;;1.80;;
27161;SDS011;54464;50.558;9.704;2023-05-14T11:29:45;1.67;;;1.50;;
27161;SDS011;54464;50.558;9.704;2023-05-14T11:32:12;2.87;;;1.87;;
27161;SDS011;54464;50.558;9.704;2023-05-14T11:34:39;1.97;;;1.63;;
27161;SDS011;54464;50.558;9.704;2023-05-14T11:37:06;1.73;;;1.60;;
27161;SDS011;54464;50.558;9.704;2023-05-14T11:39:33;1.53;;;1.43;;
27161;SDS011;54464;50.558;9.704;2023-05-14T11:42:03;1.90;;;1.70;;
27161;SDS011;54464;50.558;9.704;2023-05-14T11:44:40;1.67;;;1.50;;
27161;SDS011;54464;50.558;9.704;2023-05-14T11:47:08;1.80;;;1.60;;
27161;SDS011;54464;50.558;9.704;2023-05-14T11:49:34;1.70;;;1.60;;
27161;SDS011;54464;50.558;9.704;2023-05-14T11:52:02;5.23;;;1.80;;
27161;SDS011;54464;50.558;9.704;2023-05-14T11:54:32;1.50;;;1.40;;
27161;SDS011;54464;50.558;9.704;2023-05-14T11:56:58;1.45;;;1.38;;
27161;SDS011;54464;50.558;9.704;2023-05-14T11:59:26;3.88;;;1.50;;
27161;SDS011;54464;50.558;9.704;2023-05-14T12:01:53;1.40;;;1.30;;
27161;SDS011;54464;50.558;9.704;2023-05-14T12:04:19;1.85;;;1.55;;
27161;SDS011;54464;50.558;9.704;2023-05-14T12:06:52;1.70;;;1.60;;
27161;SDS011;54464;50.558;9.704;2023-05-14T12:09:19;2.08;;;1.88;;
27161;SDS011;54464;50.558;9.704;2023-05-14T12:11:46;2.20;;;2.00;;
27161;SDS011;54464;50.558;9.704;2023-05-14T12:14:19;1.73;;;1.60;;
27161;SDS011;54464;50.558;9.704;2023-05-14T12:16:46;2.27;;;1.90;;
27161;SDS011;54464;50.558;9.704;2023-05-14T12:19:13;1.87;;;1.50;;
27161;SDS011;54464;50.558;9.704;2023-05-14T12:21:41;1.90;;;1.70;;
27161;SDS011;54464;50.558;9.704;2023-05-14T12:24:11;1.60;;;1.50;;
27161;SDS011;54464;50.558;9.704;2023-05-14T12:26:38;1.60;;;1.33;;
27161;SDS011;54464;50.558;9.704;2023-05-14T12:29:11;1.80;;;1.50;;
27161;SDS011;54464;50.558;9.704;2023-05-14T12:31:37;1.70;;;1.30;;
27161;SDS011;54464;50.558;9.704;2023-05-14T12:34:08;3.90;;;1.70;;
27161;SDS011;54464;50.558;9.704;2023-05-14T12:36:34;1.30;;;1.20;;
27161;SDS011;54464;50.558;9.704;2023-05-14T12:39:00;2.07;;;1.50;;
27161;SDS011;54464;50.558;9.704;2023-05-14T12:41:27;1.50;;;1.40;;
27161;SDS011;54464;50.558;9.704;2023-05-14T12:43:57;1.37;;;1.27;;
27161;SDS011;54464;50.558;9.704;2023-05-14T12:46:24;3.20;;;1.60;;
27161;SDS011;54464;50.558;9.704;2023-05-14T12:48:50;1.53;;;1.40;;
27161;SDS011;54464;50.558;9.704;2023-05-14T12:51:16;2.00;;;1.43;;
27161;SDS011;54464;50.558;9.704;2023-05-14T12:53:42;2.37;;;1.40;;
27161;SDS011;54464;50.558;9.704;2023-05-14T12:56:07;1.20;;;1.10;;
27161;SDS011;54464;50.558;9.704;2023-05-14T12:58:33;1.57;;;1.33;;
27161;SDS011;54464;50.558;9.704;2023-05-14T13:00:59;1.27;;;1.10;;
27161;SDS011;54464;50.558;9.704;2023-05-14T13:03:24;1.30;;;1.20;;
27161;SDS011;54464;50.558;9.704;2023-05-14T13:05:50;1.10;;;1.00;;
27161;SDS011;54464;50.558;9.704;2023-05-14T13:08:17;1.20;;;1.10;;
27161;SDS011;54464;50.558;9.704;2023-05-14T13:10:45;1.53;;;0.97;;
27161;SDS011;54464;50.558;9.704;2023-05-14T13:13:11;1.07;;;0.97;;
27161;SDS011;54464;50.558;9.704;2023-05-14T13:15:39;0.90;;;0.80;;
27161;SDS011;54464;50.558;9.704;2023-05-14T13:18:04;2.43;;;1.33;;
27161;SDS011;54464;50.558;9.704;2023-05-14T13:20:30;1.80;;;1.10;;
27161;SDS011;54464;50.558;9.704;2023-05-14T13:22:56;0.87;;;0.87;;
27161;SDS011;54464;50.558;9.704;2023-05-14T13:25:22;1.07;;;1.00;;
27161;SDS011;54464;50.558;9.704;2023-05-14T13:27:48;1.10;;;1.00;;
27161;SDS011;54464;50.558;9.704;2023-05-14T13:30:16;0.90;;;0.90;;
27161;SDS011;54464;50.558;9.704;2023-05-14T13:32:42;1.20;;;1.10;;
27161;SDS011;54464;50.558;9.704;2023-05-14T13:35:08;0.80;;;0.80;;
27161;SDS011;54464;50.558;9.704;2023-05-14T13:37:34;1.00;;;0.90;;
27161;SDS011;54464;50.558;9.704;2023-05-14T13:40:00;1.00;;;0.90;;
27161;SDS011;54464;50.558;9.704;2023-05-14T13:42:26;1.33;;;1.23;;
27161;SDS011;54464;50.558;9.704;2023-05-14T13:44:51;3.10;;;1.37;;
27161;SDS011;54464;50.558;9.704;2023-05-14T13:47:17;1.20;;;1.10;;
27161;SDS011;54464;50.558;9.704;2023-05-14T13:49:43;1.40;;;1.30;;
27161;SDS011;54464;50.558;9.704;2023-05-14T13:52:08;1.30;;;1.20;;
27161;SDS011;54464;50.558;9.704;2023-05-14T13:54:34;1.30;;;1.20;;
27161;SDS011;54464;50.558;9.704;2023-05-14T13:56:59;1.27;;;1.17;;
27161;SDS011;54464;50.558;9.704;2023-05-14T13:59:25;1.48;;;1.27;;
27161;SDS011;54464;50.558;9.704;2023-05-14T14:01:51;1.35;;;1.02;;
27161;SDS011;54464;50.558;9.704;2023-05-14T14:04:17;1.33;;;1.20;;
27161;SDS011;54464;50.558;9.704;2023-05-14T14:06:43;1.80;;;1.30;;
27161;SDS011;54464;50.558;9.704;2023-05-14T14:09:09;1.60;;;1.17;;
27161;SDS011;54464;50.558;9.704;2023-05-14T14:11:36;1.52;;;1.20;;
27161;SDS011;54464;50.558;9.704;2023-05-14T14:14:02;1.00;;;1.00;;
27161;SDS011;54464;50.558;9.704;2023-05-14T14:16:27;1.88;;;1.30;;
27161;SDS011;54464;50.558;9.704;2023-05-14T14:18:53;1.88;;;1.20;;
27161;SDS011;54464;50.558;9.704;2023-05-14T14:21:18;1.30;;;1.20;;
27161;SDS011;54464;50.558;9.704;2023-05-14T14:23:45;1.30;;;1.20;;
27161;SDS011;54464;50.558;9.704;2023-05-14T14:26:11;1.30;;;1.20;;
27161;SDS011;54464;50.558;9.704;2023-05-14T14:28:36;2.17;;;1.20;;
27161;SDS011;54464;50.558;9.704;2023-05-14T14:31:02;1.93;;;1.43;;
27161;SDS011;54464;50.558;9.704;2023-05-14T14:33:27;1.50;;;1.40;;
27161;SDS011;54464;50.558;9.704;2023-05-14T14:35:53;1.70;;;1.57;;
27161;SDS011;54464;50.558;9.704;2023-05-14T14:38:19;1.50;;;1.40;;
27161;SDS011;54464;50.558;9.704;2023-05-14T14:40:44;1.83;;;1.70;;
27161;SDS011;54464;50.558;9.704;2023-05-14T14:43:10;2.35;;;1.48;;
27161;SDS011;54464;50.558;9.704;2023-05-14T14:45:36;1.52;;;1.33;;
27161;SDS011;54464;50.558;9.704;2023-05-14T14:50:50;1.65;;;1.40;;
27161;SDS011;54464;50.558;9.704;2023-05-14T14:53:16;1.30;;;1.20;;
27161;SDS011;54464;50.558;9.704;2023-05-14T14:55:42;1.70;;;1.60;;
27161;SDS011;54464;50.558;9.704;2023-05-14T14:58:08;1.20;;;1.10;;
27161;SDS011;54464;50.558;9.704;2023-05-14T15:00:33;1.58;;;1.48;;
27161;SDS011;54464;50.558;9.704;2023-05-14T15:02:59;1.70;;;1.60;;
27161;SDS011;54464;50.558;9.704;2023-05-14T15:05:25;2.57;;;1.70;;
27161;SDS011;54464;50.558;9.704;2023-05-14T15:07:50;1.90;;;1.80;;